Estación de Polizones INIA

Ultimos registro cada 15 minutos 43
Estación Fecha / Hora Temperatura Humedad Lluvia Velocidad Dirección Radiación Presion
43 Polizones INIA 05-09-2026 10:30 7,8 55,7 0 2 40 498,7 1017
42 Polizones INIA 05-09-2026 10:15 7,3 54,3 0 2,4 46 463,9 1017
41 Polizones INIA 05-09-2026 10:00 6,4 66,2 0 2,9 92 427,8 1017
40 Polizones INIA 05-09-2026 09:45 5,6 62,3 0 1,7 114 388,2 1017
39 Polizones INIA 05-09-2026 09:30 4,2 84 0 0,9 165 347,8 1018
38 Polizones INIA 05-09-2026 09:15 3,8 92,6 0 0 0 310,1 1018
37 Polizones INIA 05-09-2026 09:00 2,8 96,3 0 0 0 269,4 1017
36 Polizones INIA 05-09-2026 08:45 1,4 97,5 0 0 0 150,5 1017
35 Polizones INIA 05-09-2026 08:30 0,8 96,7 0 0 0 87 1018
34 Polizones INIA 05-09-2026 08:15 1 97 0 0,4 138 153,3 1017
33 Polizones INIA 05-09-2026 08:00 0 98,9 0 1,2 51 32,2 1016
32 Polizones INIA 05-09-2026 07:45 -0,9 98,8 0 0,3 44 15 1016
31 Polizones INIA 05-09-2026 07:30 -0,4 98 0 0 0 10,3 1016
30 Polizones INIA 05-09-2026 07:15 0 98,6 0 0 0 3,4 1016
29 Polizones INIA 05-09-2026 07:00 0,2 98,5 0 0 0 0,6 1016
28 Polizones INIA 05-09-2026 06:45 0,5 98,6 0 0 0 0,1 1016
27 Polizones INIA 05-09-2026 06:30 1 98,3 0 0,3 98 0 1016
26 Polizones INIA 05-09-2026 06:15 1,2 99 0 0,4 96 0 1016
25 Polizones INIA 05-09-2026 06:00 1,3 98,8 0 0 0 0 1015
24 Polizones INIA 05-09-2026 05:45 1,6 98,5 0 0 0 0 1016
23 Polizones INIA 05-09-2026 05:30 1,6 98,7 0 0 0 0 1015
22 Polizones INIA 05-09-2026 05:15 1,4 98,5 0 0 0 0 1015
21 Polizones INIA 05-09-2026 05:00 1,3 98,6 0,1 0 0 0 1015
20 Polizones INIA 05-09-2026 04:45 1,8 97,7 0 0 0 0 1015
19 Polizones INIA 05-09-2026 04:30 2,1 98,3 0 0 0 0,1 1015
18 Polizones INIA 05-09-2026 04:15 1,6 98,5 0 0 0 0 1015
17 Polizones INIA 05-09-2026 04:00 1,2 98,7 0 0 0 0 1015
16 Polizones INIA 05-09-2026 03:45 1,6 97,5 0 0 0 0 1015
15 Polizones INIA 05-09-2026 03:30 2,2 98,1 0 0 75 0 1015
14 Polizones INIA 05-09-2026 03:15 2,3 97,9 0 0,4 75 0 1015
13 Polizones INIA 05-09-2026 03:00 2,8 98,1 0 0 75 0 1015
12 Polizones INIA 05-09-2026 02:45 3,4 98 0 0 0 0 1015
11 Polizones INIA 05-09-2026 02:30 3,5 98,3 0 0 98 0 1015
10 Polizones INIA 05-09-2026 02:15 3,5 97,9 0 0 97 0 1015
9 Polizones INIA 05-09-2026 02:00 3,7 97,9 0 0,1 87 0 1015
8 Polizones INIA 05-09-2026 01:45 3,7 98,2 0 0 0 0 1015
7 Polizones INIA 05-09-2026 01:30 3,7 98,3 0 0,3 91 0 1015
6 Polizones INIA 05-09-2026 01:15 4 98 0 0 0 0 1015
5 Polizones INIA 05-09-2026 01:00 4 98,1 0 0 0 0 1014
4 Polizones INIA 05-09-2026 00:45 3,8 97,9 0 0,3 90 0 1015
3 Polizones INIA 05-09-2026 00:30 4 98,2 0 0,1 109 0 1015
2 Polizones INIA 05-09-2026 00:15 4,1 97,7 0 0,1 108 0 1015
1 Polizones INIA 05-09-2026 00:00 4,1 97,8 0 0 108 0 1015